sensor_id;sensor_type;location;lat;lon;timestamp;pressure;altitude;pressure_sealevel;temperature;humidity
29385;BME280;16367;48.736;9.218;2023-04-16T00:00:30;98282.16;;;7.11;100.00
29385;BME280;16367;48.736;9.218;2023-04-16T00:02:33;98270.34;;;7.04;100.00
29385;BME280;16367;48.736;9.218;2023-04-16T00:04:36;97972.03;;;7.23;100.00
29385;BME280;16367;48.736;9.218;2023-04-16T00:06:38;96636.41;;;7.14;100.00
29385;BME280;16367;48.736;9.218;2023-04-16T00:08:41;97640.78;;;7.22;100.00
29385;BME280;16367;48.736;9.218;2023-04-16T00:10:45;97644.16;;;7.24;100.00
29385;BME280;16367;48.736;9.218;2023-04-16T00:12:48;95937.09;;;6.91;100.00
29385;BME280;16367;48.736;9.218;2023-04-16T00:14:51;98925.97;;;7.01;100.00
29385;BME280;16367;48.736;9.218;2023-04-16T00:16:53;99245.25;;;6.94;100.00
29385;BME280;16367;48.736;9.218;2023-04-16T00:18:56;100578.22;;;7.01;100.00
29385;BME280;16367;48.736;9.218;2023-04-16T00:20:59;100286.53;;;7.23;100.00
29385;BME280;16367;48.736;9.218;2023-04-16T00:23:02;97614.72;;;7.07;100.00
29385;BME280;16367;48.736;9.218;2023-04-16T00:25:05;98928.50;;;7.02;100.00
29385;BME280;16367;48.736;9.218;2023-04-16T00:27:09;99277.72;;;7.13;100.00
29385;BME280;16367;48.736;9.218;2023-04-16T00:29:12;98299.94;;;7.21;100.00
29385;BME280;16367;48.736;9.218;2023-04-16T00:31:14;94621.84;;;6.94;100.00
29385;BME280;16367;48.736;9.218;2023-04-16T00:33:17;95976.78;;;7.15;100.00
29385;BME280;16367;48.736;9.218;2023-04-16T00:35:20;95639.16;;;7.10;100.00
29385;BME280;16367;48.736;9.218;2023-04-16T00:37:23;95645.75;;;7.14;100.00
29385;BME280;16367;48.736;9.218;2023-04-16T00:39:25;93990.25;;;7.11;100.00
29385;BME280;16367;48.736;9.218;2023-04-16T00:41:28;93645.72;;;7.02;100.00
29385;BME280;16367;48.736;9.218;2023-04-16T00:43:32;93640.06;;;6.99;100.00
29385;BME280;16367;48.736;9.218;2023-04-16T00:45:35;94966.59;;;7.03;100.00
29385;BME280;16367;48.736;9.218;2023-04-16T00:47:38;95280.28;;;6.93;100.00
29385;BME280;16367;48.736;9.218;2023-04-16T00:49:41;98621.91;;;7.16;100.00
29385;BME280;16367;48.736;9.218;2023-04-16T00:51:44;95620.19;;;6.99;100.00
29385;BME280;16367;48.736;9.218;2023-04-16T00:53:47;95639.94;;;7.11;100.00
29385;BME280;16367;48.736;9.218;2023-04-16T00:55:50;95953.63;;;7.01;100.00
29385;BME280;16367;48.736;9.218;2023-04-16T00:57:53;96620.59;;;7.05;100.00
29385;BME280;16367;48.736;9.218;2023-04-16T00:59:57;97278.59;;;7.03;100.00
29385;BME280;16367;48.736;9.218;2023-04-16T01:02:00;95957.75;;;7.03;100.00
29385;BME280;16367;48.736;9.218;2023-04-16T01:04:04;96271.31;;;6.93;100.00
29385;BME280;16367;48.736;9.218;2023-04-16T01:06:08;96584.00;;;6.83;100.00
29385;BME280;16367;48.736;9.218;2023-04-16T01:08:14;98594.75;;;7.00;100.00
29385;BME280;16367;48.736;9.218;2023-04-16T01:10:18;100233.94;;;6.93;100.00
29385;BME280;16367;48.736;9.218;2023-04-16T01:12:20;100571.31;;;6.97;100.00
29385;BME280;16367;48.736;9.218;2023-04-16T01:14:23;101904.91;;;7.03;100.00
29385;BME280;16367;48.736;9.218;2023-04-16T01:16:27;101569.00;;;7.00;100.00
29385;BME280;16367;48.736;9.218;2023-04-16T01:18:30;100573.03;;;6.98;100.00
29385;BME280;16367;48.736;9.218;2023-04-16T01:20:35;100585.13;;;7.05;100.00
29385;BME280;16367;48.736;9.218;2023-04-16T01:22:38;99889.72;;;6.85;100.00
29385;BME280;16367;48.736;9.218;2023-04-16T01:24:41;102895.16;;;7.02;100.00
29385;BME280;16367;48.736;9.218;2023-04-16T01:26:43;102242.56;;;7.07;100.00
29385;BME280;16367;48.736;9.218;2023-04-16T01:28:46;101892.63;;;6.96;100.00
29385;BME280;16367;48.736;9.218;2023-04-16T01:30:49;101253.22;;;7.09;100.00
29385;BME280;16367;48.736;9.218;2023-04-16T01:32:52;99283.72;;;7.17;100.00
29385;BME280;16367;48.736;9.218;2023-04-16T01:34:54;99287.13;;;7.19;100.00
29385;BME280;16367;48.736;9.218;2023-04-16T01:36:58;98651.63;;;7.34;100.00
29385;BME280;16367;48.736;9.218;2023-04-16T01:39:01;95667.97;;;7.28;100.00
29385;BME280;16367;48.736;9.218;2023-04-16T01:41:04;92988.28;;;7.04;100.00
29385;BME280;16367;48.736;9.218;2023-04-16T01:43:07;93636.84;;;6.97;100.00
29385;BME280;16367;48.736;9.218;2023-04-16T01:45:10;95953.63;;;7.01;100.00
29385;BME280;16367;48.736;9.218;2023-04-16T01:47:13;96597.34;;;6.91;100.00
29385;BME280;16367;48.736;9.218;2023-04-16T01:49:16;98914.91;;;6.94;100.00
29385;BME280;16367;48.736;9.218;2023-04-16T01:51:18;98228.06;;;6.78;100.00
29385;BME280;16367;48.736;9.218;2023-04-16T01:53:23;100894.88;;;6.93;100.00
29385;BME280;16367;48.736;9.218;2023-04-16T01:55:25;102225.00;;;6.97;100.00
29385;BME280;16367;48.736;9.218;2023-04-16T01:57:28;103217.88;;;6.98;100.00
29385;BME280;16367;48.736;9.218;2023-04-16T01:59:31;103582.47;;;7.17;100.00
29385;BME280;16367;48.736;9.218;2023-04-16T02:01:33;101914.50;;;7.09;100.00
29385;BME280;16367;48.736;9.218;2023-04-16T02:03:36;101917.16;;;7.10;100.00
29385;BME280;16367;48.736;9.218;2023-04-16T02:05:39;98234.81;;;6.83;100.00
29385;BME280;16367;48.736;9.218;2023-04-16T02:07:42;100900.94;;;6.96;100.00
29385;BME280;16367;48.736;9.218;2023-04-16T02:09:46;99581.63;;;6.98;100.00
29385;BME280;16367;48.736;9.218;2023-04-16T02:11:50;100903.53;;;6.98;100.00
29385;BME280;16367;48.736;9.218;2023-04-16T02:13:53;101241.06;;;7.02;100.00
29385;BME280;16367;48.736;9.218;2023-04-16T02:15:55;100559.19;;;6.90;100.00
29385;BME280;16367;48.736;9.218;2023-04-16T02:17:58;102241.69;;;7.07;100.00
29385;BME280;16367;48.736;9.218;2023-04-16T02:20:01;101924.16;;;7.14;100.00
29385;BME280;16367;48.736;9.218;2023-04-16T02:22:06;98907.25;;;6.90;100.00
29385;BME280;16367;48.736;9.218;2023-04-16T02:24:09;100919.16;;;7.07;100.00
29385;BME280;16367;48.736;9.218;2023-04-16T02:26:13;100246.00;;;7.00;100.00
29385;BME280;16367;48.736;9.218;2023-04-16T02:28:16;102226.75;;;6.98;100.00
29385;BME280;16367;48.736;9.218;2023-04-16T02:30:19;103555.75;;;7.02;100.00
29385;BME280;16367;48.736;9.218;2023-04-16T02:32:21;103883.84;;;7.00;100.00
29385;BME280;16367;48.736;9.218;2023-04-16T02:34:24;104882.66;;;7.04;100.00
29385;BME280;16367;48.736;9.218;2023-04-16T02:36:27;103545.06;;;6.96;100.00
29385;BME280;16367;48.736;9.218;2023-04-16T02:38:30;104553.53;;;7.05;100.00
29385;BME280;16367;48.736;9.218;2023-04-16T02:40:32;104208.38;;;6.97;100.00
29385;BME280;16367;48.736;9.218;2023-04-16T02:42:36;105559.88;;;7.12;100.00
29385;BME280;16367;48.736;9.218;2023-04-16T02:44:39;103553.97;;;7.01;100.00
29385;BME280;16367;48.736;9.218;2023-04-16T02:46:42;102556.50;;;6.98;100.00
29385;BME280;16367;48.736;9.218;2023-04-16T02:48:44;103553.06;;;7.00;100.00
29385;BME280;16367;48.736;9.218;2023-04-16T02:50:47;102896.03;;;7.03;100.00
29385;BME280;16367;48.736;9.218;2023-04-16T02:52:50;103546.84;;;6.97;100.00
29385;BME280;16367;48.736;9.218;2023-04-16T02:54:52;103873.13;;;6.94;100.00
29385;BME280;16367;48.736;9.218;2023-04-16T02:56:55;104877.22;;;7.01;100.00
29385;BME280;16367;48.736;9.218;2023-04-16T02:58:59;105549.88;;;7.07;100.00
29385;BME280;16367;48.736;9.218;2023-04-16T03:01:02;103207.25;;;6.92;100.00
29385;BME280;16367;48.736;9.218;2023-04-16T03:03:05;104238.81;;;7.14;100.00
29385;BME280;16367;48.736;9.218;2023-04-16T03:05:08;102567.97;;;7.04;100.00
29385;BME280;16367;48.736;9.218;2023-04-16T03:07:12;102567.13;;;7.04;100.00
29385;BME280;16367;48.736;9.218;2023-04-16T03:09:14;102898.69;;;7.04;100.00
29385;BME280;16367;48.736;9.218;2023-04-16T03:11:17;100543.63;;;6.81;100.00
29385;BME280;16367;48.736;9.218;2023-04-16T03:13:20;102196.88;;;6.81;100.00
29385;BME280;16367;48.736;9.218;2023-04-16T03:15:24;103571.75;;;7.11;100.00
29385;BME280;16367;48.736;9.218;2023-04-16T03:17:27;101573.38;;;7.03;100.00
29385;BME280;16367;48.736;9.218;2023-04-16T03:19:30;100573.03;;;6.98;100.00
29385;BME280;16367;48.736;9.218;2023-04-16T03:21:33;102878.38;;;6.93;100.00
29385;BME280;16367;48.736;9.218;2023-04-16T03:23:35;102881.91;;;6.95;100.00
29385;BME280;16367;48.736;9.218;2023-04-16T03:25:38;103886.53;;;7.02;100.00
29385;BME280;16367;48.736;9.218;2023-04-16T03:27:41;103868.66;;;6.92;100.00
29385;BME280;16367;48.736;9.218;2023-04-16T03:29:44;102232.91;;;7.02;100.00
29385;BME280;16367;48.736;9.218;2023-04-16T03:31:48;101903.13;;;7.02;100.00
29385;BME280;16367;48.736;9.218;2023-04-16T03:33:51;101542.81;;;6.85;100.00
29385;BME280;16367;48.736;9.218;2023-04-16T03:35:54;102879.22;;;6.93;100.00
29385;BME280;16367;48.736;9.218;2023-04-16T03:37:57;102213.59;;;6.91;100.00
29385;BME280;16367;48.736;9.218;2023-04-16T03:40:00;102553.88;;;6.96;100.00
29385;BME280;16367;48.736;9.218;2023-04-16T03:42:04;104241.50;;;7.15;100.00
29385;BME280;16367;48.736;9.218;2023-04-16T03:44:06;102890.75;;;7.00;100.00
29385;BME280;16367;48.736;9.218;2023-04-16T03:46:09;102899.56;;;7.05;100.00
29385;BME280;16367;48.736;9.218;2023-04-16T03:48:13;101226.22;;;6.93;100.00
29385;BME280;16367;48.736;9.218;2023-04-16T03:50:16;102237.28;;;7.04;100.00
29385;BME280;16367;48.736;9.218;2023-04-16T03:52:19;101215.78;;;6.87;100.00
29385;BME280;16367;48.736;9.218;2023-04-16T03:54:21;100877.50;;;6.83;100.00
29385;BME280;16367;48.736;9.218;2023-04-16T03:56:24;101847.06;;;6.70;100.00
29385;BME280;16367;48.736;9.218;2023-04-16T03:58:27;103498.78;;;6.69;100.00
29385;BME280;16367;48.736;9.218;2023-04-16T04:00:29;104835.78;;;6.78;100.00
29385;BME280;16367;48.736;9.218;2023-04-16T04:02:32;105838.13;;;6.83;100.00
29385;BME280;16367;48.736;9.218;2023-04-16T04:04:36;105502.75;;;6.81;100.00
29385;BME280;16367;48.736;9.218;2023-04-16T04:06:39;106497.13;;;6.82;100.00
29385;BME280;16367;48.736;9.218;2023-04-16T04:08:44;107489.94;;;6.82;100.00
29385;BME280;16367;48.736;9.218;2023-04-16T04:10:47;107822.78;;;6.83;100.00
29385;BME280;16367;48.736;9.218;2023-04-16T04:12:51;107486.25;;;6.80;100.00
29385;BME280;16367;48.736;9.218;2023-04-16T04:14:54;108166.81;;;6.90;100.00
29385;BME280;16367;48.736;9.218;2023-04-16T04:16:56;108147.31;;;6.79;100.00
29385;BME280;16367;48.736;9.218;2023-04-16T04:18:59;107508.41;;;6.92;100.00
29385;BME280;16367;48.736;9.218;2023-04-16T04:21:05;107188.41;;;6.98;100.00
29385;BME280;16367;48.736;9.218;2023-04-16T04:23:08;106529.16;;;6.99;100.00
29385;BME280;16367;48.736;9.218;2023-04-16T04:25:11;105523.59;;;6.92;100.00
29385;BME280;16367;48.736;9.218;2023-04-16T04:27:14;105206.31;;;7.00;100.00
29385;BME280;16367;48.736;9.218;2023-04-16T04:29:16;104219.13;;;7.03;100.00
29385;BME280;16367;48.736;9.218;2023-04-16T04:31:19;102885.44;;;6.97;100.00
29385;BME280;16367;48.736;9.218;2023-04-16T04:33:22;99906.94;;;6.95;100.00
29385;BME280;16367;48.736;9.218;2023-04-16T04:35:24;101259.34;;;7.12;100.00
29385;BME280;16367;48.736;9.218;2023-04-16T04:37:28;99243.53;;;6.93;100.00
29385;BME280;16367;48.736;9.218;2023-04-16T04:39:31;99906.94;;;6.95;100.00
29385;BME280;16367;48.736;9.218;2023-04-16T04:41:34;98226.38;;;6.78;100.00
29385;BME280;16367;48.736;9.218;2023-04-16T04:43:36;99870.81;;;6.73;100.00
29385;BME280;16367;48.736;9.218;2023-04-16T04:45:39;100539.28;;;6.78;100.00
29385;BME280;16367;48.736;9.218;2023-04-16T04:47:42;102186.34;;;6.75;100.00
29385;BME280;16367;48.736;9.218;2023-04-16T04:49:45;102184.56;;;6.74;100.00
29385;BME280;16367;48.736;9.218;2023-04-16T04:51:47;103843.69;;;6.78;100.00
29385;BME280;16367;48.736;9.218;2023-04-16T04:53:51;104519.41;;;6.86;100.00
29385;BME280;16367;48.736;9.218;2023-04-16T04:55:54;103195.72;;;6.85;100.00
29385;BME280;16367;48.736;9.218;2023-04-16T04:58:02;102883.66;;;6.96;100.00
29385;BME280;16367;48.736;9.218;2023-04-16T05:00:06;101874.22;;;6.86;100.00
29385;BME280;16367;48.736;9.218;2023-04-16T05:02:09;103199.25;;;6.87;100.00
29385;BME280;16367;48.736;9.218;2023-04-16T05:04:12;103885.66;;;7.01;100.00
29385;BME280;16367;48.736;9.218;2023-04-16T05:06:15;101538.44;;;6.83;100.00
29385;BME280;16367;48.736;9.218;2023-04-16T05:08:18;100900.06;;;6.96;100.00
29385;BME280;16367;48.736;9.218;2023-04-16T05:10:22;101560.31;;;6.95;100.00
29385;BME280;16367;48.736;9.218;2023-04-16T05:12:24;100560.94;;;6.91;100.00
29385;BME280;16367;48.736;9.218;2023-04-16T05:14:27;102192.47;;;6.78;100.00
29385;BME280;16367;48.736;9.218;2023-04-16T05:16:30;103857.06;;;6.85;100.00
29385;BME280;16367;48.736;9.218;2023-04-16T05:18:32;102867.72;;;6.87;100.00
29385;BME280;16367;48.736;9.218;2023-04-16T05:20:35;104193.16;;;6.88;100.00
29385;BME280;16367;48.736;9.218;2023-04-16T05:22:38;102186.34;;;6.75;100.00
29385;BME280;16367;48.736;9.218;2023-04-16T05:24:41;102515.97;;;6.74;100.00
29385;BME280;16367;48.736;9.218;2023-04-16T05:26:44;102864.19;;;6.85;100.00
29385;BME280;16367;48.736;9.218;2023-04-16T05:28:47;102850.94;;;6.77;100.00
29385;BME280;16367;48.736;9.218;2023-04-16T05:30:50;105181.00;;;6.86;100.00
29385;BME280;16367;48.736;9.218;2023-04-16T05:32:53;105511.81;;;6.86;100.00
29385;BME280;16367;48.736;9.218;2023-04-16T05:34:55;106138.91;;;6.66;100.00
29385;BME280;16367;48.736;9.218;2023-04-16T05:36:58;107467.78;;;6.69;100.00
29385;BME280;16367;48.736;9.218;2023-04-16T05:39:01;109466.88;;;6.76;100.00
29385;BME280;16367;48.736;9.218;2023-04-16T05:41:04;109789.53;;;6.72;100.00
29385;BME280;16367;48.736;9.218;2023-04-16T05:43:08;110772.53;;;6.66;100.00
29385;BME280;16367;48.736;9.218;2023-04-16T05:45:11;112770.63;;;6.72;100.00
29385;BME280;16367;48.736;9.218;2023-04-16T05:47:13;113758.00;;;6.68;100.00
29385;BME280;16367;48.736;9.218;2023-04-16T05:49:17;115804.56;;;6.98;100.00
29385;BME280;16367;48.736;9.218;2023-04-16T05:51:20;115128.28;;;6.91;100.00
29385;BME280;16367;48.736;9.218;2023-04-16T05:53:25;114767.13;;;6.76;100.00
29385;BME280;16367;48.736;9.218;2023-04-16T05:55:28;115449.06;;;6.86;100.00
29385;BME280;16367;48.736;9.218;2023-04-16T05:57:31;115093.72;;;6.73;100.00
29385;BME280;16367;48.736;9.218;2023-04-16T05:59:35;116430.16;;;6.78;100.00
29385;BME280;16367;48.736;9.218;2023-04-16T06:01:38;116410.19;;;6.68;100.00
29385;BME280;16367;48.736;9.218;2023-04-16T06:03:41;117769.22;;;6.85;100.00
29385;BME280;16367;48.736;9.218;2023-04-16T06:05:44;118078.78;;;6.73;100.00
29385;BME280;16367;48.736;9.218;2023-04-16T06:07:46;118391.34;;;6.64;100.00
29385;BME280;16367;48.736;9.218;2023-04-16T06:09:49;119762.75;;;6.86;100.00
29385;BME280;16367;48.736;9.218;2023-04-16T06:11:52;119752.47;;;6.81;100.00
29385;BME280;16367;48.736;9.218;2023-04-16T06:13:55;119425.66;;;6.83;100.00
29385;BME280;16367;48.736;9.218;2023-04-16T06:15:59;119764.78;;;6.87;100.00
29385;BME280;16367;48.736;9.218;2023-04-16T06:18:02;120796.13;;;7.04;100.00
29385;BME280;16367;48.736;9.218;2023-04-16T06:20:06;119073.31;;;6.73;100.00
29385;BME280;16367;48.736;9.218;2023-04-16T06:22:08;120784.72;;;6.98;100.00
29385;BME280;16367;48.736;9.218;2023-04-16T06:24:11;120461.88;;;7.03;100.00
29385;BME280;16367;48.736;9.218;2023-04-16T06:26:14;118747.53;;;6.76;100.00
29385;BME280;16367;48.736;9.218;2023-04-16T06:28:17;119443.03;;;6.92;100.00
29385;BME280;16367;48.736;9.218;2023-04-16T06:30:19;118767.91;;;6.86;100.00
29385;BME280;16367;48.736;9.218;2023-04-16T06:32:23;118434.97;;;6.86;100.00
29385;BME280;16367;48.736;9.218;2023-04-16T06:34:27;119077.38;;;6.75;100.00
29385;BME280;16367;48.736;9.218;2023-04-16T06:36:29;120105.06;;;6.91;100.00
29385;BME280;16367;48.736;9.218;2023-04-16T06:38:32;119777.13;;;6.93;100.00
29385;BME280;16367;48.736;9.218;2023-04-16T06:40:35;118768.91;;;6.87;100.00
29385;BME280;16367;48.736;9.218;2023-04-16T06:42:39;118448.19;;;6.92;100.00
29385;BME280;16367;48.736;9.218;2023-04-16T06:44:43;118469.50;;;7.03;100.00
29385;BME280;16367;48.736;9.218;2023-04-16T06:46:46;116773.84;;;6.85;100.00
29385;BME280;16367;48.736;9.218;2023-04-16T06:48:50;116124.34;;;6.92;100.00
29385;BME280;16367;48.736;9.218;2023-04-16T06:50:53;116475.09;;;7.01;100.00
29385;BME280;16367;48.736;9.218;2023-04-16T06:52:56;115151.00;;;7.03;100.00
29385;BME280;16367;48.736;9.218;2023-04-16T06:55:00;114498.47;;;7.08;100.00
29385;BME280;16367;48.736;9.218;2023-04-16T06:57:03;112480.78;;;6.94;100.00
29385;BME280;16367;48.736;9.218;2023-04-16T06:59:06;112178.22;;;7.09;100.00
29385;BME280;16367;48.736;9.218;2023-04-16T07:01:09;110830.56;;;6.97;100.00
29385;BME280;16367;48.736;9.218;2023-04-16T07:03:12;111201.00;;;7.18;100.00
29385;BME280;16367;48.736;9.218;2023-04-16T07:05:16;109161.09;;;6.90;100.00
29385;BME280;16367;48.736;9.218;2023-04-16T07:07:19;109515.75;;;7.03;100.00
29385;BME280;16367;48.736;9.218;2023-04-16T07:09:22;108821.53;;;6.86;100.00
29385;BME280;16367;48.736;9.218;2023-04-16T07:11:24;110182.13;;;7.05;100.00
29385;BME280;16367;48.736;9.218;2023-04-16T07:13:27;108871.06;;;7.12;100.00
29385;BME280;16367;48.736;9.218;2023-04-16T07:15:30;107525.97;;;7.01;100.00
29385;BME280;16367;48.736;9.218;2023-04-16T07:17:33;106897.78;;;7.20;100.00
29385;BME280;16367;48.736;9.218;2023-04-16T07:19:35;105877.22;;;7.05;100.00
29385;BME280;16367;48.736;9.218;2023-04-16T07:21:39;105575.28;;;7.21;100.00
29385;BME280;16367;48.736;9.218;2023-04-16T07:23:44;104581.41;;;7.20;100.00
29385;BME280;16367;48.736;9.218;2023-04-16T07:25:46;103587.78;;;7.20;100.00
29385;BME280;16367;48.736;9.218;2023-04-16T07:27:49;102262.81;;;7.19;100.00
29385;BME280;16367;48.736;9.218;2023-04-16T07:29:52;101279.34;;;7.24;100.00
29385;BME280;16367;48.736;9.218;2023-04-16T07:31:56;100637.91;;;7.35;100.00
29385;BME280;16367;48.736;9.218;2023-04-16T07:33:58;96668.88;;;7.34;100.00
29385;BME280;16367;48.736;9.218;2023-04-16T07:36:01;93343.13;;;7.19;100.00
29385;BME280;16367;48.736;9.218;2023-04-16T07:38:05;95017.31;;;7.34;100.00
29385;BME280;16367;48.736;9.218;2023-04-16T07:40:08;94356.91;;;7.34;100.00
29385;BME280;16367;48.736;9.218;2023-04-16T07:42:11;92059.72;;;7.42;100.00
29385;BME280;16367;48.736;9.218;2023-04-16T07:44:14;88098.84;;;7.41;100.00
29385;BME280;16367;48.736;9.218;2023-04-16T07:46:16;83856.88;;;7.70;100.00
29385;BME280;16367;48.736;9.218;2023-04-16T07:48:20;78891.09;;;7.51;100.00
29385;BME280;16367;48.736;9.218;2023-04-16T07:50:23;73286.50;;;7.39;100.00
29385;BME280;16367;48.736;9.218;2023-04-16T07:52:26;74576.03;;;7.20;100.00
29385;BME280;16367;48.736;9.218;2023-04-16T07:54:30;70959.31;;;7.16;100.00
29385;BME280;16367;48.736;9.218;2023-04-16T07:56:33;73294.13;;;7.45;100.00
29385;BME280;16367;48.736;9.218;2023-04-16T07:58:36;69963.34;;;7.06;100.00
29385;BME280;16367;48.736;9.218;2023-04-16T08:00:38;74232.09;;;7.08;100.00
29385;BME280;16367;48.736;9.218;2023-04-16T08:02:42;76213.56;;;7.16;100.00
29385;BME280;16367;48.736;9.218;2023-04-16T08:04:45;78197.88;;;7.25;100.00
29385;BME280;16367;48.736;9.218;2023-04-16T08:06:48;78876.06;;;7.40;100.00
29385;BME280;16367;48.736;9.218;2023-04-16T08:08:51;75543.28;;;7.06;100.00
29385;BME280;16367;48.736;9.218;2023-04-16T08:10:55;78541.69;;;7.36;100.00
29385;BME280;16367;48.736;9.218;2023-04-16T08:12:59;77906.88;;;7.53;100.00
29385;BME280;16367;48.736;9.218;2023-04-16T08:15:02;72958.03;;;7.39;100.00
29385;BME280;16367;48.736;9.218;2023-04-16T08:17:05;70664.38;;;7.43;100.00
29385;BME280;16367;48.736;9.218;2023-04-16T08:19:08;65737.25;;;7.38;100.00
29385;BME280;16367;48.736;9.218;2023-04-16T08:21:11;64432.22;;;7.43;100.00
29385;BME280;16367;48.736;9.218;2023-04-16T08:23:13;57866.63;;;7.28;100.00
29385;BME280;16367;48.736;9.218;2023-04-16T08:25:16;61156.22;;;7.44;100.00
29385;BME280;16367;48.736;9.218;2023-04-16T08:27:20;59532.06;;;7.57;100.00
29385;BME280;16367;48.736;9.218;2023-04-16T08:29:23;51986.66;;;7.33;100.00
29385;BME280;16367;48.736;9.218;2023-04-16T08:31:26;49355.47;;;7.12;100.00
29385;BME280;16367;48.736;9.218;2023-04-16T08:33:29;55262.38;;;7.41;100.00
29385;BME280;16367;48.736;9.218;2023-04-16T08:35:32;56239.59;;;7.37;100.00
29385;BME280;16367;48.736;9.218;2023-04-16T08:37:35;56576.13;;;7.46;100.00
29385;BME280;16367;48.736;9.218;2023-04-16T08:39:37;52975.78;;;7.43;100.00
29385;BME280;16367;48.736;9.218;2023-04-16T08:41:43;50034.44;;;7.42;100.00
29385;BME280;16367;48.736;9.218;2023-04-16T08:43:49;51029.69;;;7.59;100.00
29385;BME280;16367;48.736;9.218;2023-04-16T08:45:52;43190.53;;;7.53;100.00
29385;BME280;16367;48.736;9.218;2023-04-16T08:47:57;37962.91;;;7.33;100.00
29385;BME280;16367;48.736;9.218;2023-04-16T08:50:02;48742.16;;;7.58;100.00
29385;BME280;16367;48.736;9.218;2023-04-16T08:52:05;43518.97;;;7.56;100.00
29385;BME280;16367;48.736;9.218;2023-04-16T08:54:13;47119.31;;;7.70;100.00
29385;BME280;16367;48.736;9.218;2023-04-16T08:56:23;43832.94;;;7.40;100.00
29385;BME280;16367;48.736;9.218;2023-04-16T08:58:28;45804.16;;;7.58;100.00
29385;BME280;16367;48.736;9.218;2023-04-16T09:00:34;41567.94;;;7.63;100.00
29385;BME280;16367;48.736;9.218;2023-04-16T09:02:39;37973.22;;;7.48;100.00
29385;BME280;16367;48.736;9.218;2023-04-16T09:04:42;41902.25;;;7.74;100.00
29385;BME280;16367;48.736;9.218;2023-04-16T09:06:47;38006.25;;;7.96;100.00
29385;BME280;16367;48.736;9.218;2023-04-16T09:08:52;22706.16;;;7.65;100.00
29385;BME280;16367;48.736;9.218;2023-04-16T09:10:55;18826.28;;;7.96;100.00
29385;BME280;16367;48.736;9.218;2023-04-16T09:12:58;8783.47;;;7.82;100.00
29385;BME280;16367;48.736;9.218;2023-04-16T09:15:02;10075.13;;;7.73;100.00
29385;BME280;16367;48.736;9.218;2023-04-16T09:17:07;15257.00;;;7.84;100.00
29385;BME280;16367;48.736;9.218;2023-04-16T09:19:10;13636.00;;;7.78;100.00
29385;BME280;16367;48.736;9.218;2023-04-16T09:21:13;17539.91;;;8.27;100.00
29385;BME280;16367;48.736;9.218;2023-04-16T09:23:16;3937.25;;;7.93;100.00
29385;BME280;16367;48.736;9.218;2023-04-16T09:25:20;-7676.34;;;8.29;100.00
29385;BME280;16367;48.736;9.218;2023-04-16T09:27:24;-10896.00;;;8.16;100.00
29385;BME280;16367;48.736;9.218;2023-04-16T09:29:34;-15919.78;;;8.29;100.00
29385;BME280;16367;48.736;9.218;2023-04-16T09:31:37;-14997.91;;;8.15;100.00
29385;BME280;16367;48.736;9.218;2023-04-16T09:33:42;-23427.53;;;8.19;100.00
29385;BME280;16367;48.736;9.218;2023-04-16T09:35:46;-23417.06;;;7.86;100.00
29385;BME280;16367;48.736;9.218;2023-04-16T09:37:56;-22107.16;;;8.20;100.00
29385;BME280;16367;48.736;9.218;2023-04-16T09:40:00;-22282.34;;;8.02;100.00
29385;BME280;16367;48.736;9.218;2023-04-16T09:42:04;-2840.53;;;7.82;100.00
29385;BME280;16367;48.736;9.218;2023-04-16T09:44:07;8787.53;;;8.02;100.00
29385;BME280;16367;48.736;9.218;2023-04-16T09:46:10;6527.34;;;8.22;100.00
29385;BME280;16367;48.736;9.218;2023-04-16T09:48:13;-3162.56;;;8.08;100.00
29385;BME280;16367;48.736;9.218;2023-04-16T09:50:18;-10897.69;;;8.32;100.00
29385;BME280;16367;48.736;9.218;2023-04-16T09:52:21;-13146.41;;;8.01;100.00
29385;BME280;16367;48.736;9.218;2023-04-16T09:54:24;-12184.34;;;8.23;100.00
29385;BME280;16367;48.736;9.218;2023-04-16T09:56:27;-23427.06;;;8.18;100.00
29385;BME280;16367;48.736;9.218;2023-04-16T09:58:31;-23432.31;;;8.35;100.00
29385;BME280;16367;48.736;9.218;2023-04-16T10:00:34;-17758.84;;;8.32;100.00
29385;BME280;16367;48.736;9.218;2023-04-16T10:02:44;-23421.19;;;7.99;100.00
29385;BME280;16367;48.736;9.218;2023-04-16T10:04:49;-13504.94;;;8.12;100.00
29385;BME280;16367;48.736;9.218;2023-04-16T10:07:03;-7674.06;;;7.91;100.00
29385;BME280;16367;48.736;9.218;2023-04-16T10:09:06;-3807.59;;;7.81;100.00
29385;BME280;16367;48.736;9.218;2023-04-16T10:11:11;2968.56;;;7.95;100.00
29385;BME280;16367;48.736;9.218;2023-04-16T10:13:14;10719.53;;;7.63;100.00
29385;BME280;16367;48.736;9.218;2023-04-16T10:15:18;14613.91;;;8.00;100.00
29385;BME280;16367;48.736;9.218;2023-04-16T10:17:20;8784.53;;;7.87;100.00
29385;BME280;16367;48.736;9.218;2023-04-16T10:19:24;4904.50;;;7.79;100.00
29385;BME280;16367;48.736;9.218;2023-04-16T10:21:28;14932.78;;;7.83;100.00
29385;BME280;16367;48.736;9.218;2023-04-16T10:23:37;8462.66;;;7.95;100.00
29385;BME280;16367;48.736;9.218;2023-04-16T10:25:40;9107.72;;;7.86;100.00
29385;BME280;16367;48.736;9.218;2023-04-16T10:27:43;9429.84;;;7.80;100.00
29385;BME280;16367;48.736;9.218;2023-04-16T10:29:47;15575.38;;;7.67;100.00
29385;BME280;16367;48.736;9.218;2023-04-16T10:31:51;33764.66;;;7.84;100.00
29385;BME280;16367;48.736;9.218;2023-04-16T10:33:54;35398.47;;;7.94;100.00
29385;BME280;16367;48.736;9.218;2023-04-16T10:36:08;24351.41;;;8.14;100.00
29385;BME280;16367;48.736;9.218;2023-04-16T10:38:21;2325.25;;;8.20;100.00
29385;BME280;16367;48.736;9.218;2023-04-16T10:40:26;2648.41;;;8.21;100.00
29385;BME280;16367;48.736;9.218;2023-04-16T10:42:30;2001.03;;;8.08;100.00
29385;BME280;16367;48.736;9.218;2023-04-16T10:44:33;-13793.00;;;8.22;100.00
29385;BME280;16367;48.736;9.218;2023-04-16T10:46:37;-21059.66;;;8.14;100.00
29385;BME280;16367;48.736;9.218;2023-04-16T10:48:41;-22175.88;;;7.98;100.00